Time;durP1;ratioP1;P1;durP2;ratioP2;P2;SDS_P1;SDS_P2;PMS_P1;PMS_P2;Temp;Humidity;BMP_temperature;BMP_pressure;BME280_temperature;BME280_humidity;BME280_pressure;Samples;Min_cycle;Max_cycle;Signal;HPM_P1;HPM_P2
2022/12/17 13:06:45;;;;;;;6.30;1.52;;;15.50;98.20;;;;;;5046931;28;20032;-67
2022/12/17 13:09:25;;;;;;;4.90;0.80;;;15.50;98.30;;;;;;5044007;28;20149;-68
2022/12/17 13:12:04;;;;;;;3.28;0.65;;;15.50;98.40;;;;;;5035593;28;20041;-69
2022/12/17 13:15:00;;;;;;;3.65;0.63;;;15.50;98.40;;;;;;5037238;28;20024;-68
2022/12/17 13:17:43;;;;;;;5.05;0.73;;;15.50;98.10;;;;;;5031202;28;20024;-68
2022/12/17 13:20:31;;;;;;;4.00;0.98;;;15.50;97.80;;;;;;5041047;28;20029;-69
2022/12/17 13:23:05;;;;;;;2.20;1.35;;;15.50;97.80;;;;;;5039375;28;20029;-67
2022/12/17 13:25:32;;;;;;;1.85;0.47;;;15.50;97.80;;;;;;5042877;28;20478;-62
2022/12/17 13:27:59;;;;;;;2.97;0.77;;;15.50;97.90;;;;;;5032505;28;20048;-67
2022/12/17 13:30:39;;;;;;;5.60;1.30;;;15.50;98.00;;;;;;5042677;28;20180;-70
2022/12/17 13:33:41;;;;;;;2.38;0.65;;;15.50;97.90;;;;;;5046265;28;20570;-70
2022/12/17 13:36:44;;;;;;;3.78;0.70;;;15.50;98.00;;;;;;5032844;28;20037;-70
2022/12/17 13:39:14;;;;;;;6.28;1.13;;;15.40;98.40;;;;;;5039063;28;20021;-69
2022/12/17 13:41:42;;;;;;;3.38;1.10;;;15.40;98.50;;;;;;5042736;28;20412;-70
2022/12/17 13:44:25;;;;;;;3.28;0.70;;;15.40;98.70;;;;;;5048666;28;20098;-70
2022/12/17 13:46:54;;;;;;;3.17;0.60;;;15.40;98.80;;;;;;5040034;28;20021;-70
2022/12/17 13:49:25;;;;;;;2.25;0.52;;;15.40;99.00;;;;;;5044834;28;20036;-70
2022/12/17 13:52:26;;;;;;;6.72;1.85;;;15.40;98.90;;;;;;5031518;28;20045;-71
2022/12/17 13:55:05;;;;;;;3.50;0.80;;;15.40;99.00;;;;;;5031298;28;20045;-70
2022/12/17 13:57:32;;;;;;;4.93;1.50;;;15.40;99.30;;;;;;5032768;28;20028;-70
2022/12/17 14:00:03;;;;;;;4.05;0.65;;;15.40;99.30;;;;;;5045236;28;20017;-70
2022/12/17 14:02:33;;;;;;;5.82;0.95;;;15.50;99.70;;;;;;5035766;28;20033;-69
2022/12/17 14:05:03;;;;;;;3.45;0.65;;;15.40;99.90;;;;;;5030415;28;20051;-68
2022/12/17 14:07:37;;;;;;;3.72;0.77;;;15.20;99.90;;;;;;5036472;28;20033;-67
2022/12/17 14:10:14;;;;;;;8.27;0.77;;;14.90;99.90;;;;;;5034920;28;20037;-66
2022/12/17 14:12:41;;;;;;;4.78;0.82;;;14.70;99.90;;;;;;5049164;28;20079;-67
2022/12/17 14:15:23;;;;;;;2.35;0.80;;;14.40;99.90;;;;;;5049531;28;20024;-68
2022/12/17 14:17:52;;;;;;;4.40;1.00;;;14.30;99.90;;;;;;5045425;28;20749;-68
2022/12/17 14:20:39;;;;;;;9.43;1.08;;;14.20;99.90;;;;;;5042243;28;20024;-68
2022/12/17 14:23:19;;;;;;;3.88;0.93;;;14.00;99.90;;;;;;5035282;28;20029;-68
2022/12/17 14:25:47;;;;;;;7.93;1.23;;;14.00;99.90;;;;;;5039451;28;20102;-69
2022/12/17 14:28:35;;;;;;;6.40;0.95;;;13.90;99.90;;;;;;5038281;28;20021;-68
2022/12/17 14:31:15;;;;;;;7.57;0.80;;;13.90;99.90;;;;;;5039194;28;20407;-68
2022/12/17 14:33:43;;;;;;;5.65;0.93;;;13.70;99.90;;;;;;5040142;28;20028;-68
2022/12/17 14:36:20;;;;;;;5.70;0.80;;;13.70;99.90;;;;;;5035920;28;20025;-69
2022/12/17 14:39:01;;;;;;;6.43;0.85;;;13.60;99.90;;;;;;5039922;28;20032;-69
2022/12/17 14:44:26;;;;;;;4.93;1.27;;;13.50;99.90;;;;;;5050842;28;20124;-68
2022/12/17 14:47:24;;;;;;;6.28;1.00;;;13.50;99.90;;;;;;5040467;28;20029;-69
2022/12/17 14:50:08;;;;;;;6.50;0.95;;;13.50;99.90;;;;;;5044038;28;20041;-69
2022/12/17 14:52:48;;;;;;;5.50;1.10;;;13.60;99.90;;;;;;5037237;28;20025;-68
2022/12/17 14:55:57;;;;;;;5.15;1.02;;;13.60;99.90;;;;;;5032871;28;20026;-68
2022/12/17 14:58:26;;;;;;;4.85;1.15;;;13.60;99.90;;;;;;5043662;28;20368;-69
2022/12/17 15:01:04;;;;;;;7.40;1.10;;;13.60;99.90;;;;;;5042553;28;20037;-69
2022/12/17 15:03:41;;;;;;;7.60;1.40;;;13.70;99.90;;;;;;5039808;28;20470;-68
2022/12/17 15:06:11;;;;;;;10.65;1.50;;;13.70;99.90;;;;;;5036692;28;20024;-68
2022/12/17 15:08:45;;;;;;;9.48;1.35;;;13.80;99.90;;;;;;5045073;28;20040;-69
2022/12/17 15:11:19;;;;;;;6.30;0.83;;;13.80;99.90;;;;;;5045780;28;20083;-68
2022/12/17 15:13:47;;;;;;;4.68;0.82;;;13.90;99.90;;;;;;5041707;28;20025;-69
2022/12/17 15:16:14;;;;;;;5.15;0.80;;;13.90;99.90;;;;;;5040560;28;20052;-68
2022/12/17 15:18:42;;;;;;;6.40;1.20;;;14.00;99.90;;;;;;5047546;28;20052;-68
2022/12/17 15:21:11;;;;;;;4.68;0.98;;;14.00;99.90;;;;;;5047024;28;20029;-69
2022/12/17 15:23:42;;;;;;;8.30;1.63;;;14.00;99.90;;;;;;5040627;28;20033;-68
2022/12/17 15:26:10;;;;;;;9.63;1.10;;;14.00;99.90;;;;;;5042859;28;20057;-69
2022/12/17 15:28:37;;;;;;;3.80;0.70;;;14.00;99.90;;;;;;5046648;28;20460;-69
2022/12/17 15:31:04;;;;;;;1.52;0.60;;;14.00;99.90;;;;;;5043391;28;20029;-69
2022/12/17 15:33:32;;;;;;;6.63;0.77;;;14.00;99.90;;;;;;5034373;28;20478;-69
2022/12/17 15:35:59;;;;;;;2.92;0.65;;;14.10;99.90;;;;;;5041459;28;20108;-68
2022/12/17 15:38:26;;;;;;;3.10;0.73;;;14.10;99.90;;;;;;5043353;28;20025;-69
2022/12/17 15:40:53;;;;;;;3.90;0.80;;;14.10;99.90;;;;;;5041612;28;20076;-67
2022/12/17 15:43:21;;;;;;;4.18;0.80;;;14.00;99.90;;;;;;5048747;28;20098;-70
2022/12/17 15:45:51;;;;;;;3.58;0.85;;;14.00;99.90;;;;;;5048973;28;20044;-69
2022/12/17 15:48:22;;;;;;;4.97;1.00;;;14.00;99.90;;;;;;5043595;28;20017;-70
2022/12/17 15:50:49;;;;;;;4.35;0.90;;;13.90;99.90;;;;;;5031539;28;20513;-70
2022/12/17 15:53:16;;;;;;;2.60;1.02;;;13.90;99.90;;;;;;5034293;28;20108;-70
2022/12/17 15:55:43;;;;;;;4.03;0.95;;;13.90;99.90;;;;;;5034806;28;20112;-69
2022/12/17 15:58:11;;;;;;;7.65;1.13;;;14.00;99.90;;;;;;5045853;28;20031;-69
2022/12/17 16:00:38;;;;;;;3.38;0.50;;;14.00;99.90;;;;;;5042671;28;20025;-69
2022/12/17 16:03:05;;;;;;;4.55;0.47;;;14.10;99.90;;;;;;5043482;28;20039;-69
2022/12/17 16:05:32;;;;;;;4.97;1.00;;;14.10;99.90;;;;;;5045173;28;20017;-69
2022/12/17 16:08:01;;;;;;;4.20;0.70;;;14.10;99.90;;;;;;5047843;28;20031;-69
2022/12/17 16:10:28;;;;;;;4.63;0.90;;;14.10;99.90;;;;;;5045777;28;20040;-69
2022/12/17 16:12:56;;;;;;;4.10;0.60;;;14.10;99.90;;;;;;5044652;28;20017;-68
2022/12/17 16:15:24;;;;;;;5.82;1.55;;;14.10;99.90;;;;;;5039478;28;20401;-69
2022/12/17 16:17:51;;;;;;;4.88;0.65;;;14.00;99.90;;;;;;5034722;28;20025;-69
2022/12/17 16:20:18;;;;;;;4.63;0.75;;;14.00;99.90;;;;;;5038654;28;20033;-69
2022/12/17 16:22:45;;;;;;;4.32;0.70;;;14.00;99.90;;;;;;5036282;28;20470;-68
2022/12/17 16:25:12;;;;;;;1.55;0.90;;;13.90;99.90;;;;;;5034537;28;20021;-68
2022/12/17 16:27:40;;;;;;;4.40;0.80;;;13.90;99.90;;;;;;5044132;28;20048;-68
2022/12/17 16:30:08;;;;;;;4.65;0.80;;;13.90;99.90;;;;;;5031105;28;20041;-68
2022/12/17 16:32:35;;;;;;;5.72;1.52;;;13.80;99.90;;;;;;5040665;28;20057;-69
2022/12/17 16:35:03;;;;;;;3.33;0.50;;;13.80;99.90;;;;;;5046221;28;20028;-69
2022/12/17 16:37:30;;;;;;;7.97;1.25;;;13.70;99.90;;;;;;5034635;28;20108;-68
2022/12/17 16:39:58;;;;;;;8.00;0.85;;;13.70;99.90;;;;;;5037812;28;20377;-69
2022/12/17 16:42:25;;;;;;;6.22;0.55;;;13.60;99.90;;;;;;5046446;28;20104;-67
2022/12/17 16:44:52;;;;;;;2.10;0.63;;;13.60;99.90;;;;;;5045822;28;20049;-69
2022/12/17 16:47:19;;;;;;;4.30;0.77;;;13.60;99.90;;;;;;5039278;28;20083;-69
2022/12/17 16:49:49;;;;;;;3.53;0.63;;;13.70;99.90;;;;;;5033781;28;20017;-69
2022/12/17 16:52:16;;;;;;;3.65;0.80;;;13.70;99.90;;;;;;5045849;28;20071;-69
2022/12/17 16:54:44;;;;;;;1.98;0.55;;;13.80;99.90;;;;;;5030890;28;20065;-69
2022/12/17 16:57:11;;;;;;;5.72;0.80;;;13.80;99.90;;;;;;5033613;28;20176;-69
2022/12/17 16:59:38;;;;;;;4.82;0.80;;;13.80;99.90;;;;;;5037491;28;20022;-68
2022/12/17 17:02:11;;;;;;;3.10;0.57;;;13.90;99.90;;;;;;5035789;28;20025;-69
2022/12/17 17:04:38;;;;;;;5.40;1.33;;;13.80;99.90;;;;;;5042798;28;20017;-68
2022/12/17 17:07:05;;;;;;;4.40;1.33;;;13.80;99.90;;;;;;5047365;28;20027;-69
2022/12/17 17:09:33;;;;;;;4.43;1.17;;;13.70;99.90;;;;;;5035227;28;20071;-69
2022/12/17 17:12:00;;;;;;;4.57;1.08;;;13.70;99.90;;;;;;5043424;28;20029;-68
2022/12/17 17:14:27;;;;;;;4.88;0.70;;;13.80;99.90;;;;;;5046637;28;20508;-68
2022/12/17 17:16:54;;;;;;;6.85;1.00;;;13.80;99.90;;;;;;5039746;28;20406;-69
2022/12/17 17:19:22;;;;;;;3.63;0.63;;;13.90;99.90;;;;;;5042268;28;20022;-67
2022/12/17 17:21:54;;;;;;;2.88;0.70;;;13.90;99.90;;;;;;5044577;28;20025;-68
2022/12/17 17:24:25;;;;;;;3.75;0.70;;;14.00;99.90;;;;;;5035411;28;20476;-71
2022/12/17 17:26:53;;;;;;;7.13;0.65;;;14.00;99.90;;;;;;5031525;28;20033;-68
2022/12/17 17:29:21;;;;;;;5.57;0.80;;;14.10;99.90;;;;;;5035688;28;20502;-68
2022/12/17 17:31:48;;;;;;;1.33;0.50;;;14.10;99.90;;;;;;5040062;28;20870;-68
2022/12/17 17:34:15;;;;;;;6.53;1.40;;;14.20;99.90;;;;;;5046118;28;20017;-67
2022/12/17 17:36:43;;;;;;;1.65;0.50;;;14.20;99.90;;;;;;5043565;28;20158;-67
2022/12/17 17:39:10;;;;;;;3.53;0.40;;;14.30;99.90;;;;;;5041835;28;20021;-72
2022/12/17 17:41:37;;;;;;;0.93;0.30;;;14.30;99.90;;;;;;5040573;28;20021;-69
2022/12/17 17:44:11;;;;;;;4.80;0.55;;;14.30;99.90;;;;;;5043713;28;20037;-69
2022/12/17 17:46:39;;;;;;;3.35;1.15;;;14.30;99.90;;;;;;5039289;28;20431;-68
2022/12/17 17:49:08;;;;;;;0.80;0.20;;;14.30;99.90;;;;;;5044122;28;20031;-68
2022/12/17 17:51:40;;;;;;;3.50;0.50;;;14.30;99.90;;;;;;5039190;28;20040;-69
2022/12/17 17:54:07;;;;;;;3.80;0.70;;;14.30;99.90;;;;;;5039615;28;20029;-67
2022/12/17 17:56:37;;;;;;;3.47;0.45;;;14.30;99.90;;;;;;5030226;28;20030;-69
2022/12/17 17:59:06;;;;;;;3.13;0.50;;;14.40;99.90;;;;;;5040502;28;20031;-71
2022/12/17 18:01:36;;;;;;;1.95;0.60;;;14.30;99.90;;;;;;5036324;28;20498;-70
2022/12/17 18:04:06;;;;;;;3.17;0.55;;;14.30;99.90;;;;;;5039175;28;20033;-73
2022/12/17 18:06:35;;;;;;;2.92;0.95;;;14.30;99.90;;;;;;5037129;28;20672;-72
2022/12/17 18:09:04;;;;;;;2.30;0.57;;;14.30;99.90;;;;;;5045428;28;20072;-69
2022/12/17 18:11:32;;;;;;;5.80;0.90;;;14.40;99.90;;;;;;5038279;28;20033;-69
2022/12/17 18:14:01;;;;;;;1.95;0.52;;;14.40;99.90;;;;;;5039616;28;20029;-69
2022/12/17 18:16:30;;;;;;;2.60;0.35;;;14.40;99.90;;;;;;5037125;28;20112;-67
2022/12/17 18:18:59;;;;;;;3.10;0.60;;;14.40;99.90;;;;;;5034403;28;20029;-67
2022/12/17 18:21:28;;;;;;;2.88;0.40;;;14.40;99.90;;;;;;5039621;28;20024;-71
2022/12/17 18:23:59;;;;;;;1.65;0.52;;;14.40;99.90;;;;;;5031107;28;20026;-69
2022/12/17 18:26:31;;;;;;;3.20;0.50;;;14.40;99.90;;;;;;5040675;28;20021;-73
2022/12/17 18:29:02;;;;;;;4.70;0.45;;;14.40;99.90;;;;;;5041043;28;20474;-73
2022/12/17 18:31:30;;;;;;;7.28;0.80;;;14.50;99.90;;;;;;5038553;28;20075;-71
2022/12/17 18:34:00;;;;;;;2.78;0.35;;;14.50;99.90;;;;;;5041078;28;20193;-67
2022/12/17 18:36:30;;;;;;;2.20;0.50;;;14.50;99.90;;;;;;5034282;28;20518;-67
2022/12/17 18:39:00;;;;;;;1.75;0.70;;;14.50;99.90;;;;;;5039653;28;20111;-69
2022/12/17 18:44:14;;;;;;;0.68;0.20;;;14.50;99.90;;;;;;5044401;28;20083;-72
2022/12/17 18:46:41;;;;;;;7.35;0.70;;;14.50;99.90;;;;;;5043184;28;20033;-72
2022/12/17 18:49:11;;;;;;;5.03;0.75;;;14.50;99.90;;;;;;5039997;28;20021;-68
2022/12/17 18:51:41;;;;;;;1.38;0.52;;;14.50;99.90;;;;;;5041565;28;20482;-68
2022/12/17 18:54:14;;;;;;;1.95;0.52;;;14.60;99.90;;;;;;5036272;28;20025;-68
2022/12/17 18:56:41;;;;;;;5.57;1.10;;;14.50;99.90;;;;;;5044525;28;20025;-70
2022/12/17 18:59:12;;;;;;;4.35;0.98;;;14.60;99.90;;;;;;5048109;28;20125;-69
2022/12/17 19:01:39;;;;;;;5.47;1.00;;;14.60;99.90;;;;;;5035469;28;20032;-67
2022/12/17 19:04:09;;;;;;;1.85;0.47;;;14.60;99.90;;;;;;5034654;28;20030;-66
2022/12/17 19:06:38;;;;;;;1.50;0.30;;;14.60;99.90;;;;;;5045719;28;20017;-68
2022/12/17 19:09:07;;;;;;;4.13;1.27;;;14.60;99.90;;;;;;5038290;28;20025;-68
2022/12/17 19:11:35;;;;;;;3.17;0.80;;;14.70;99.90;;;;;;5031710;28;20419;-69
2022/12/17 19:14:02;;;;;;;1.35;0.50;;;14.60;99.90;;;;;;5044695;28;20394;-67
2022/12/17 19:16:30;;;;;;;2.22;0.60;;;14.60;99.90;;;;;;5046747;28;20040;-67
2022/12/17 19:19:03;;;;;;;2.47;0.40;;;14.70;99.90;;;;;;5034014;28;20141;-68
2022/12/17 19:21:32;;;;;;;1.83;0.45;;;14.60;99.90;;;;;;5046755;28;20428;-69
2022/12/17 19:24:05;;;;;;;4.03;0.60;;;14.60;99.90;;;;;;5047205;28;20029;-68
2022/12/17 19:26:32;;;;;;;2.70;0.60;;;14.50;99.90;;;;;;5049443;28;20035;-68
2022/12/17 19:29:00;;;;;;;0.82;0.43;;;14.40;99.90;;;;;;5039693;28;20024;-67
2022/12/17 19:31:30;;;;;;;0.77;0.30;;;14.40;99.90;;;;;;5039378;28;20040;-67
2022/12/17 19:33:59;;;;;;;2.72;0.60;;;14.30;99.90;;;;;;5040126;28;20044;-67
2022/12/17 19:36:29;;;;;;;3.45;0.40;;;14.30;99.90;;;;;;5032651;28;20029;-68
2022/12/17 19:38:59;;;;;;;2.90;0.55;;;14.40;99.90;;;;;;5043627;28;20075;-68
2022/12/17 19:41:27;;;;;;;3.38;0.50;;;14.50;99.90;;;;;;5047481;28;20029;-67
2022/12/17 19:44:00;;;;;;;5.63;0.73;;;14.60;99.90;;;;;;5039671;28;20382;-68
2022/12/17 19:46:28;;;;;;;5.70;0.68;;;14.60;99.90;;;;;;5038319;28;20031;-68
2022/12/17 19:48:57;;;;;;;0.93;0.40;;;14.80;99.90;;;;;;5033938;28;20679;-69
2022/12/17 19:51:26;;;;;;;6.30;0.60;;;15.00;99.90;;;;;;5037763;28;20036;-68
2022/12/17 19:53:54;;;;;;;3.65;0.80;;;15.10;99.90;;;;;;5044570;28;20100;-71
2022/12/17 19:56:27;;;;;;;2.38;0.52;;;15.30;99.90;;;;;;5035372;28;20032;-72
2022/12/17 19:58:57;;;;;;;3.42;0.40;;;15.40;99.90;;;;;;5041023;28;20101;-71
2022/12/17 20:01:26;;;;;;;2.55;0.40;;;15.50;99.90;;;;;;5038699;28;20037;-70
2022/12/17 20:03:54;;;;;;;2.22;0.70;;;15.60;99.90;;;;;;5043430;28;20060;-70
2022/12/17 20:06:25;;;;;;;4.05;0.60;;;15.60;99.90;;;;;;5047396;28;20391;-69
2022/12/17 20:08:53;;;;;;;3.13;0.40;;;15.60;99.90;;;;;;5050625;28;20432;-70
2022/12/17 20:11:33;;;;;;;1.42;0.40;;;15.60;99.70;;;;;;5048607;28;20029;-69
2022/12/17 20:14:10;;;;;;;5.90;1.50;;;15.60;99.50;;;;;;5045296;28;20028;-69
2022/12/17 20:16:46;;;;;;;4.53;0.80;;;15.70;99.20;;;;;;5035829;28;20120;-64
2022/12/17 20:19:29;;;;;;;1.65;0.47;;;15.70;99.40;;;;;;5040831;28;20776;-69
2022/12/17 20:21:58;;;;;;;3.42;0.52;;;15.70;98.90;;;;;;5031506;28;20029;-69
2022/12/17 20:24:25;;;;;;;1.60;0.50;;;15.80;99.00;;;;;;5029046;28;20524;-68
2022/12/17 20:26:54;;;;;;;2.35;0.68;;;15.80;98.80;;;;;;5043974;28;20486;-72
2022/12/17 20:29:23;;;;;;;0.70;0.40;;;15.80;98.50;;;;;;5042329;28;20075;-72
2022/12/17 20:31:52;;;;;;;3.45;0.40;;;15.90;98.70;;;;;;5044398;28;20521;-70
2022/12/17 20:34:20;;;;;;;3.80;0.50;;;16.00;98.40;;;;;;5033591;28;20022;-67
2022/12/17 20:36:47;;;;;;;0.98;0.45;;;16.10;98.10;;;;;;5047353;28;20039;-67
2022/12/17 20:39:14;;;;;;;3.95;0.93;;;16.20;98.20;;;;;;5038385;28;20082;-66
2022/12/17 20:41:43;;;;;;;3.03;0.80;;;16.30;97.40;;;;;;5043077;28;20053;-68
2022/12/17 20:44:14;;;;;;;4.85;0.50;;;16.40;97.00;;;;;;5034652;28;20056;-69
2022/12/17 20:46:42;;;;;;;2.00;0.40;;;16.70;97.20;;;;;;5043462;28;20382;-68
2022/12/17 20:49:11;;;;;;;1.65;0.50;;;16.90;96.30;;;;;;5033598;28;20049;-69
2022/12/17 20:51:39;;;;;;;3.38;0.40;;;17.10;95.70;;;;;;5045096;28;20033;-68
2022/12/17 20:54:07;;;;;;;2.58;0.30;;;17.20;95.30;;;;;;5042784;28;20049;-68
2022/12/17 20:56:35;;;;;;;4.72;0.50;;;17.20;95.40;;;;;;5039156;28;20494;-68
2022/12/17 20:59:06;;;;;;;2.97;0.50;;;17.20;95.10;;;;;;5041986;28;20157;-68
2022/12/17 21:01:34;;;;;;;4.13;0.60;;;17.40;95.20;;;;;;5044959;28;20386;-68
2022/12/17 21:04:02;;;;;;;1.40;0.40;;;17.90;94.40;;;;;;5040676;28;20076;-67
2022/12/17 21:06:34;;;;;;;3.80;0.70;;;18.30;93.60;;;;;;5037279;28;20044;-69
2022/12/17 21:09:02;;;;;;;2.78;0.50;;;18.70;92.50;;;;;;5036988;28;20474;-68
2022/12/17 21:11:31;;;;;;;3.28;0.65;;;19.10;91.70;;;;;;5045970;28;20088;-70
2022/12/17 21:14:01;;;;;;;1.90;0.45;;;19.10;89.30;;;;;;5038906;28;20524;-72
2022/12/17 21:16:30;;;;;;;1.05;0.40;;;19.00;89.70;;;;;;5032295;28;20115;-71
2022/12/17 21:19:00;;;;;;;4.55;0.50;;;18.90;90.50;;;;;;5039113;28;20412;-71
2022/12/17 21:21:29;;;;;;;3.08;0.60;;;18.90;88.30;;;;;;5042064;28;20032;-71
2022/12/17 21:23:57;;;;;;;3.13;0.50;;;19.30;89.40;;;;;;5033296;28;20030;-68
2022/12/17 21:26:30;;;;;;;1.13;0.30;;;20.20;84.80;;;;;;5030807;28;20029;-69
2022/12/17 21:29:00;;;;;;;2.63;0.60;;;20.70;80.50;;;;;;5039098;28;20616;-69
2022/12/17 21:31:40;;;;;;;0.98;0.38;;;21.40;78.70;;;;;;5045824;28;20036;-70
2022/12/17 21:34:12;;;;;;;1.42;0.28;;;21.60;74.30;;;;;;5043874;28;20117;-69
2022/12/17 21:36:40;;;;;;;2.08;0.40;;;21.30;73.60;;;;;;5039203;28;20017;-70
2022/12/17 21:39:08;;;;;;;2.35;0.43;;;21.10;75.50;;;;;;5033082;28;20225;-71
2022/12/17 21:41:37;;;;;;;2.22;0.30;;;21.40;74.70;;;;;;5040192;28;20024;-69
2022/12/17 21:44:07;;;;;;;0.77;0.30;;;20.30;76.20;;;;;;5038813;28;20068;-69
2022/12/17 21:46:34;;;;;;;0.43;0.20;;;20.00;79.30;;;;;;5033636;28;20021;-69
2022/12/17 21:49:03;;;;;;;0.13;0.13;;;20.00;78.50;;;;;;5034086;28;20033;-68
2022/12/17 21:51:31;;;;;;;1.05;0.20;;;20.00;79.50;;;;;;5035671;28;20116;-68
2022/12/17 21:54:01;;;;;;;0.30;0.30;;;20.30;79.30;;;;;;5028983;28;20642;-68
2022/12/17 21:56:29;;;;;;;0.65;0.20;;;20.70;78.80;;;;;;5052299;28;20084;-68
2022/12/17 21:59:00;;;;;;;0.32;0.20;;;20.90;76.00;;;;;;5034397;28;20095;-70
2022/12/17 22:01:32;;;;;;;0.22;0.22;;;21.10;76.10;;;;;;5029850;28;20033;-70
2022/12/17 22:04:01;;;;;;;2.90;0.20;;;21.90;73.30;;;;;;5039800;28;20031;-72
2022/12/17 22:06:30;;;;;;;0.43;0.25;;;21.90;71.80;;;;;;5033118;28;20030;-72
2022/12/17 22:08:58;;;;;;;1.05;0.40;;;22.10;73.20;;;;;;5039589;28;20033;-71
2022/12/17 22:11:27;;;;;;;0.22;0.20;;;22.70;68.90;;;;;;5030986;28;20033;-68
2022/12/17 22:14:11;;;;;;;0.95;0.30;;;22.60;70.00;;;;;;5042313;28;20025;-67
2022/12/17 22:16:47;;;;;;;0.60;0.20;;;22.70;69.10;;;;;;5030051;28;20030;-69
2022/12/17 22:19:18;;;;;;;0.55;0.20;;;22.90;68.00;;;;;;5034728;28;20024;-68
2022/12/17 22:21:46;;;;;;;0.43;0.22;;;22.60;67.70;;;;;;5039007;28;20037;-70
2022/12/17 22:24:20;;;;;;;1.15;0.20;;;22.40;69.10;;;;;;5028338;28;20041;-69
2022/12/17 22:26:48;;;;;;;3.40;0.40;;;22.00;69.10;;;;;;5029271;28;20137;-70
2022/12/17 22:32:58;;;;;;;1.02;0.30;;;21.50;71.10;;;;;;5035799;28;20028;-68
2022/12/17 22:34:48;;;;;;;0.65;0.30;;;21.70;71.00;;;;;;5041257;28;20041;-67
2022/12/17 22:37:15;;;;;;;0.32;0.20;;;21.60;72.20;;;;;;5037327;28;20098;-67
2022/12/17 22:39:43;;;;;;;1.23;0.30;;;21.60;72.10;;;;;;5039401;28;20017;-65
2022/12/17 22:44:55;;;;;;;0.90;0.40;;;22.00;71.30;;;;;;5038549;28;20524;-65
2022/12/17 22:47:22;;;;;;;0.63;0.20;;;22.20;70.80;;;;;;5041665;28;20024;-67
2022/12/17 22:49:50;;;;;;;0.98;0.25;;;22.30;68.90;;;;;;5055274;28;20370;-64
2022/12/17 22:52:17;;;;;;;0.75;0.20;;;22.00;69.90;;;;;;5068665;28;20045;-64
2022/12/17 22:54:44;;;;;;;0.52;0.20;;;22.00;70.60;;;;;;5035290;28;20051;-65
2022/12/17 22:57:11;;;;;;;0.30;0.30;;;22.00;70.50;;;;;;5037588;28;20076;-65
2022/12/17 22:59:38;;;;;;;0.40;0.20;;;22.40;70.50;;;;;;5049705;28;20086;-63
2022/12/17 23:02:07;;;;;;;1.17;0.30;;;22.70;67.70;;;;;;5047109;28;20017;-63
2022/12/17 23:04:35;;;;;;;0.35;0.30;;;23.10;67.40;;;;;;5057726;28;20539;-63
2022/12/17 23:07:02;;;;;;;0.10;0.10;;;23.20;65.70;;;;;;5040139;28;20043;-63
2022/12/17 23:09:29;;;;;;;0.10;0.10;;;22.90;65.70;;;;;;5047399;28;20060;-64
2022/12/17 23:11:56;;;;;;;0.85;0.20;;;22.30;67.00;;;;;;5031091;28;20041;-64
2022/12/17 23:14:23;;;;;;;0.47;0.15;;;21.70;69.90;;;;;;5038994;28;20058;-64
2022/12/17 23:16:51;;;;;;;0.25;0.20;;;21.30;70.20;;;;;;5048219;28;20082;-64
2022/12/17 23:19:18;;;;;;;3.25;0.38;;;21.30;71.50;;;;;;5052190;28;20024;-63
2022/12/17 23:21:45;;;;;;;1.67;0.30;;;21.20;71.40;;;;;;5054523;28;20428;-63
2022/12/17 23:24:12;;;;;;;6.90;0.95;;;21.00;71.60;;;;;;5036510;28;20025;-64
2022/12/17 23:26:40;;;;;;;0.68;0.30;;;21.30;72.40;;;;;;5032608;28;20033;-66
2022/12/17 23:29:09;;;;;;;1.23;0.10;;;22.20;71.10;;;;;;5032757;28;20074;-63
2022/12/17 23:31:38;;;;;;;0.95;0.30;;;22.60;69.40;;;;;;5037890;28;20473;-62
2022/12/17 23:34:07;;;;;;;0.28;0.20;;;22.60;66.20;;;;;;5032352;28;20030;-63
2022/12/17 23:36:36;;;;;;;2.20;0.50;;;22.80;67.60;;;;;;5032870;28;20029;-60
2022/12/17 23:39:04;;;;;;;1.65;0.20;;;23.20;67.30;;;;;;5032212;28;20036;-62
2022/12/17 23:41:32;;;;;;;1.02;0.20;;;23.40;66.90;;;;;;5040632;28;20017;-62
2022/12/17 23:44:00;;;;;;;0.38;0.20;;;23.30;66.00;;;;;;5047472;28;20052;-61
2022/12/17 23:46:29;;;;;;;0.45;0.30;;;23.20;64.50;;;;;;5048702;28;20359;-60
2022/12/17 23:48:56;;;;;;;1.10;0.20;;;23.80;64.30;;;;;;5060475;28;20104;-65
2022/12/17 23:51:24;;;;;;;0.95;0.30;;;23.90;63.90;;;;;;5071709;28;20033;-62
2022/12/17 23:53:52;;;;;;;0.17;0.10;;;23.90;65.50;;;;;;5053407;28;20033;-62
2022/12/17 23:56:22;;;;;;;0.45;0.20;;;23.90;64.40;;;;;;5048786;28;20029;-62
2022/12/17 23:59:00;;;;;;;0.47;0.20;;;23.70;63.90;;;;;;5038022;28;20394;-61
